sensor_id;sensor_type;location;lat;lon;timestamp;pressure;altitude;pressure_sealevel;temperature;humidity
57827;BME280;43656;57.746;11.780;2023-02-13T00:02:20;102806.97;;;8.88;100.00
57827;BME280;43656;57.746;11.780;2023-02-13T00:04:46;102797.22;;;8.97;100.00
57827;BME280;43656;57.746;11.780;2023-02-13T00:07:11;102799.50;;;9.01;100.00
57827;BME280;43656;57.746;11.780;2023-02-13T00:09:37;102784.06;;;8.93;100.00
57827;BME280;43656;57.746;11.780;2023-02-13T00:12:04;102802.75;;;8.95;100.00
57827;BME280;43656;57.746;11.780;2023-02-13T00:14:30;102803.44;;;8.97;100.00
57827;BME280;43656;57.746;11.780;2023-02-13T00:16:55;102794.69;;;8.85;100.00
57827;BME280;43656;57.746;11.780;2023-02-13T00:19:21;102798.22;;;8.96;100.00
57827;BME280;43656;57.746;11.780;2023-02-13T00:21:46;102791.84;;;8.87;100.00
57827;BME280;43656;57.746;11.780;2023-02-13T00:24:11;102799.91;;;8.97;100.00
57827;BME280;43656;57.746;11.780;2023-02-13T00:26:37;102803.03;;;9.02;100.00
57827;BME280;43656;57.746;11.780;2023-02-13T00:29:04;102779.88;;;9.01;100.00
57827;BME280;43656;57.746;11.780;2023-02-13T00:31:29;102783.78;;;8.87;100.00
57827;BME280;43656;57.746;11.780;2023-02-13T00:33:55;102794.53;;;8.97;100.00
57827;BME280;43656;57.746;11.780;2023-02-13T00:36:21;102790.59;;;9.10;100.00
57827;BME280;43656;57.746;11.780;2023-02-13T00:38:47;102799.25;;;9.04;100.00
57827;BME280;43656;57.746;11.780;2023-02-13T00:41:13;102799.66;;;9.09;100.00
57827;BME280;43656;57.746;11.780;2023-02-13T00:43:42;102813.50;;;9.05;100.00
57827;BME280;43656;57.746;11.780;2023-02-13T00:46:08;102811.50;;;9.07;100.00
57827;BME280;43656;57.746;11.780;2023-02-13T00:48:33;102805.75;;;9.11;100.00
57827;BME280;43656;57.746;11.780;2023-02-13T00:51:00;102808.97;;;9.05;100.00
57827;BME280;43656;57.746;11.780;2023-02-13T00:53:25;102798.78;;;8.99;100.00
57827;BME280;43656;57.746;11.780;2023-02-13T00:55:51;102801.34;;;9.10;100.00
57827;BME280;43656;57.746;11.780;2023-02-13T00:58:18;102795.25;;;8.99;100.00
57827;BME280;43656;57.746;11.780;2023-02-13T01:00:44;102800.78;;;9.07;100.00
57827;BME280;43656;57.746;11.780;2023-02-13T01:03:16;102794.72;;;9.05;100.00
57827;BME280;43656;57.746;11.780;2023-02-13T01:05:43;102802.03;;;9.03;100.00
57827;BME280;43656;57.746;11.780;2023-02-13T01:08:09;102803.03;;;9.02;100.00
57827;BME280;43656;57.746;11.780;2023-02-13T01:10:36;102791.72;;;8.98;100.00
57827;BME280;43656;57.746;11.780;2023-02-13T01:13:02;102796.81;;;9.01;100.00
57827;BME280;43656;57.746;11.780;2023-02-13T01:15:28;102791.47;;;9.01;100.00
57827;BME280;43656;57.746;11.780;2023-02-13T01:17:54;102781.97;;;8.97;100.00
57827;BME280;43656;57.746;11.780;2023-02-13T01:20:22;102786.94;;;9.02;100.00
57827;BME280;43656;57.746;11.780;2023-02-13T01:22:48;102722.19;;;8.76;100.00
57827;BME280;43656;57.746;11.780;2023-02-13T01:25:14;102743.41;;;8.88;100.00
57827;BME280;43656;57.746;11.780;2023-02-13T01:27:39;102780.00;;;9.09;100.00
57827;BME280;43656;57.746;11.780;2023-02-13T01:30:06;102766.56;;;9.09;100.00
57827;BME280;43656;57.746;11.780;2023-02-13T01:32:41;102777.19;;;9.01;100.00
57827;BME280;43656;57.746;11.780;2023-02-13T01:35:07;102782.41;;;8.92;100.00
57827;BME280;43656;57.746;11.780;2023-02-13T01:37:33;102783.25;;;9.03;100.00
57827;BME280;43656;57.746;11.780;2023-02-13T01:39:59;102788.50;;;9.04;100.00
57827;BME280;43656;57.746;11.780;2023-02-13T01:42:27;102791.84;;;8.97;100.00
57827;BME280;43656;57.746;11.780;2023-02-13T01:44:55;102776.03;;;8.93;100.00
57827;BME280;43656;57.746;11.780;2023-02-13T01:47:27;102774.50;;;9.01;100.00
57827;BME280;43656;57.746;11.780;2023-02-13T01:52:34;102770.53;;;8.95;100.00
57827;BME280;43656;57.746;11.780;2023-02-13T01:55:02;102769.13;;;9.01;100.00
57827;BME280;43656;57.746;11.780;2023-02-13T01:57:29;102735.63;;;8.85;100.00
57827;BME280;43656;57.746;11.780;2023-02-13T02:00:08;102722.63;;;8.81;100.00
57827;BME280;43656;57.746;11.780;2023-02-13T02:02:38;102739.69;;;8.80;100.00
57827;BME280;43656;57.746;11.780;2023-02-13T02:05:08;102738.03;;;8.79;100.00
57827;BME280;43656;57.746;11.780;2023-02-13T02:07:35;102758.78;;;8.96;100.00
57827;BME280;43656;57.746;11.780;2023-02-13T02:10:10;102757.22;;;8.93;100.00
57827;BME280;43656;57.746;11.780;2023-02-13T02:12:43;102758.22;;;8.92;100.00
57827;BME280;43656;57.746;11.780;2023-02-13T02:15:11;102754.81;;;8.90;100.00
57827;BME280;43656;57.746;11.780;2023-02-13T02:17:36;102761.75;;;8.93;100.00
57827;BME280;43656;57.746;11.780;2023-02-13T02:39:17;102765.84;;;9.07;100.00
57827;BME280;43656;57.746;11.780;2023-02-13T02:42:17;102763.16;;;9.16;100.00
57827;BME280;43656;57.746;11.780;2023-02-13T02:47:26;102766.00;;;8.96;100.00
57827;BME280;43656;57.746;11.780;2023-02-13T02:53:09;102759.34;;;9.00;100.00
57827;BME280;43656;57.746;11.780;2023-02-13T02:58:21;102765.00;;;8.97;100.00
57827;BME280;43656;57.746;11.780;2023-02-13T03:01:12;102769.41;;;8.98;100.00
57827;BME280;43656;57.746;11.780;2023-02-13T03:03:58;102770.38;;;8.97;100.00
57827;BME280;43656;57.746;11.780;2023-02-13T03:06:48;102766.28;;;8.92;100.00
57827;BME280;43656;57.746;11.780;2023-02-13T03:09:23;102771.66;;;8.92;100.00
57827;BME280;43656;57.746;11.780;2023-02-13T03:12:10;102757.53;;;8.81;100.00
57827;BME280;43656;57.746;11.780;2023-02-13T03:14:57;102746.50;;;8.64;100.00
57827;BME280;43656;57.746;11.780;2023-02-13T03:17:22;102770.34;;;8.77;100.00
57827;BME280;43656;57.746;11.780;2023-02-13T03:20:38;102771.38;;;8.86;100.00
57827;BME280;43656;57.746;11.780;2023-02-13T03:26:27;102762.03;;;8.90;100.00
57827;BME280;43656;57.746;11.780;2023-02-13T03:29:13;102758.50;;;8.89;100.00
57827;BME280;43656;57.746;11.780;2023-02-13T03:35:21;102754.25;;;8.87;100.00
57827;BME280;43656;57.746;11.780;2023-02-13T03:38:26;102760.34;;;8.99;100.00
57827;BME280;43656;57.746;11.780;2023-02-13T03:41:02;102758.78;;;8.86;100.00
57827;BME280;43656;57.746;11.780;2023-02-13T03:46:37;102750.44;;;8.89;100.00
57827;BME280;43656;57.746;11.780;2023-02-13T03:49:06;102750.44;;;8.89;100.00
57827;BME280;43656;57.746;11.780;2023-02-13T03:51:57;102755.53;;;8.92;100.00
57827;BME280;43656;57.746;11.780;2023-02-13T03:54:33;102751.75;;;8.95;100.00
57827;BME280;43656;57.746;11.780;2023-02-13T03:57:21;102763.44;;;8.75;100.00
57827;BME280;43656;57.746;11.780;2023-02-13T04:00:10;102751.72;;;8.76;100.00
57827;BME280;43656;57.746;11.780;2023-02-13T04:02:41;102739.69;;;8.80;100.00
57827;BME280;43656;57.746;11.780;2023-02-13T04:05:16;102759.22;;;8.91;100.00
57827;BME280;43656;57.746;11.780;2023-02-13T04:07:43;102758.09;;;8.84;100.00
57827;BME280;43656;57.746;11.780;2023-02-13T04:10:14;102767.13;;;8.83;100.00
57827;BME280;43656;57.746;11.780;2023-02-13T04:15:26;102753.28;;;8.78;100.00
57827;BME280;43656;57.746;11.780;2023-02-13T04:18:03;102757.94;;;8.86;100.00
57827;BME280;43656;57.746;11.780;2023-02-13T04:20:32;102762.19;;;8.88;100.00
57827;BME280;43656;57.746;11.780;2023-02-13T04:23:04;102761.63;;;8.75;100.00
57827;BME280;43656;57.746;11.780;2023-02-13T04:25:31;102780.41;;;8.85;100.00
57827;BME280;43656;57.746;11.780;2023-02-13T04:27:56;102776.47;;;8.89;100.00
57827;BME280;43656;57.746;11.780;2023-02-13T04:30:21;102782.81;;;8.88;100.00
57827;BME280;43656;57.746;11.780;2023-02-13T04:32:47;102775.16;;;8.83;100.00
57827;BME280;43656;57.746;11.780;2023-02-13T04:35:12;102770.81;;;8.82;100.00
57827;BME280;43656;57.746;11.780;2023-02-13T04:37:39;102773.63;;;8.90;100.00
57827;BME280;43656;57.746;11.780;2023-02-13T04:40:05;102770.22;;;8.79;100.00
57827;BME280;43656;57.746;11.780;2023-02-13T04:42:30;102771.78;;;8.81;100.00
57827;BME280;43656;57.746;11.780;2023-02-13T04:44:55;102774.75;;;8.78;100.00
57827;BME280;43656;57.746;11.780;2023-02-13T04:47:21;102778.41;;;8.77;100.00
57827;BME280;43656;57.746;11.780;2023-02-13T04:49:46;102773.31;;;8.64;100.00
57827;BME280;43656;57.746;11.780;2023-02-13T04:52:12;102767.34;;;8.61;100.00
57827;BME280;43656;57.746;11.780;2023-02-13T04:54:39;102776.59;;;8.78;100.00
57827;BME280;43656;57.746;11.780;2023-02-13T04:57:04;102767.97;;;8.74;100.00
57827;BME280;43656;57.746;11.780;2023-02-13T04:59:30;102762.72;;;8.73;100.00
57827;BME280;43656;57.746;11.780;2023-02-13T05:01:55;102764.03;;;8.78;100.00
57827;BME280;43656;57.746;11.780;2023-02-13T05:04:21;102752.16;;;8.81;100.00
57827;BME280;43656;57.746;11.780;2023-02-13T05:06:46;102755.41;;;8.84;100.00
57827;BME280;43656;57.746;11.780;2023-02-13T05:09:12;102744.50;;;8.76;100.00
57827;BME280;43656;57.746;11.780;2023-02-13T05:11:37;102764.69;;;8.70;100.00
57827;BME280;43656;57.746;11.780;2023-02-13T05:14:02;102753.69;;;8.74;100.00
57827;BME280;43656;57.746;11.780;2023-02-13T05:16:28;102736.56;;;8.55;100.00
57827;BME280;43656;57.746;11.780;2023-02-13T05:18:53;102761.63;;;8.75;100.00
57827;BME280;43656;57.746;11.780;2023-02-13T05:21:20;102762.59;;;8.74;100.00
57827;BME280;43656;57.746;11.780;2023-02-13T05:24:04;102760.88;;;8.73;100.00
57827;BME280;43656;57.746;11.780;2023-02-13T05:26:29;102761.44;;;8.67;100.00
57827;BME280;43656;57.746;11.780;2023-02-13T05:28:55;102757.78;;;8.58;100.00
57827;BME280;43656;57.746;11.780;2023-02-13T05:31:39;102767.97;;;8.74;100.00
57827;BME280;43656;57.746;11.780;2023-02-13T05:34:04;102766.53;;;8.70;100.00
57827;BME280;43656;57.746;11.780;2023-02-13T05:36:29;102747.84;;;8.49;100.00
57827;BME280;43656;57.746;11.780;2023-02-13T05:38:55;102763.25;;;8.57;100.00
57827;BME280;43656;57.746;11.780;2023-02-13T05:41:20;102718.56;;;8.36;100.00
57827;BME280;43656;57.746;11.780;2023-02-13T05:43:46;102776.41;;;8.69;100.00
57827;BME280;43656;57.746;11.780;2023-02-13T05:46:11;102774.31;;;8.73;100.00
57827;BME280;43656;57.746;11.780;2023-02-13T05:48:36;102767.81;;;8.66;100.00
57827;BME280;43656;57.746;11.780;2023-02-13T05:51:02;102781.41;;;8.74;100.00
57827;BME280;43656;57.746;11.780;2023-02-13T05:53:28;102785.88;;;8.64;100.00
57827;BME280;43656;57.746;11.780;2023-02-13T05:55:54;102791.81;;;8.58;100.00
57827;BME280;43656;57.746;11.780;2023-02-13T05:58:20;102800.44;;;8.61;100.00
57827;BME280;43656;57.746;11.780;2023-02-13T06:00:46;102800.84;;;8.66;100.00
57827;BME280;43656;57.746;11.780;2023-02-13T06:03:12;102795.34;;;8.58;100.00
57827;BME280;43656;57.746;11.780;2023-02-13T06:05:38;102801.28;;;8.62;100.00
57827;BME280;43656;57.746;11.780;2023-02-13T06:08:03;102797.88;;;8.60;100.00
57827;BME280;43656;57.746;11.780;2023-02-13T06:10:29;102793.88;;;8.54;100.00
57827;BME280;43656;57.746;11.780;2023-02-13T06:12:54;102796.75;;;8.62;100.00
57827;BME280;43656;57.746;11.780;2023-02-13T06:15:20;102807.59;;;8.61;100.00
57827;BME280;43656;57.746;11.780;2023-02-13T06:17:45;102818.78;;;8.66;100.00
57827;BME280;43656;57.746;11.780;2023-02-13T06:20:11;102811.28;;;8.60;100.00
57827;BME280;43656;57.746;11.780;2023-02-13T06:22:36;102815.81;;;8.59;100.00
57827;BME280;43656;57.746;11.780;2023-02-13T06:25:03;102810.44;;;8.59;100.00
57827;BME280;43656;57.746;11.780;2023-02-13T06:27:29;102812.66;;;8.54;100.00
57827;BME280;43656;57.746;11.780;2023-02-13T06:29:54;102817.34;;;8.52;100.00
57827;BME280;43656;57.746;11.780;2023-02-13T06:32:20;102818.19;;;8.53;100.00
57827;BME280;43656;57.746;11.780;2023-02-13T06:34:45;102831.16;;;8.47;100.00
57827;BME280;43656;57.746;11.780;2023-02-13T06:37:10;102829.47;;;8.46;100.00
57827;BME280;43656;57.746;11.780;2023-02-13T06:39:36;102832.19;;;8.56;100.00
57827;BME280;43656;57.746;11.780;2023-02-13T06:42:01;102823.09;;;8.47;100.00
57827;BME280;43656;57.746;11.780;2023-02-13T06:44:27;102828.75;;;8.44;100.00
57827;BME280;43656;57.746;11.780;2023-02-13T06:46:52;102833.13;;;8.45;100.00
57827;BME280;43656;57.746;11.780;2023-02-13T06:49:18;102826.19;;;8.43;100.00
57827;BME280;43656;57.746;11.780;2023-02-13T06:51:43;102828.06;;;8.52;100.00
57827;BME280;43656;57.746;11.780;2023-02-13T06:54:09;102824.38;;;8.43;100.00
57827;BME280;43656;57.746;11.780;2023-02-13T06:56:35;102828.34;;;8.49;100.00
57827;BME280;43656;57.746;11.780;2023-02-13T06:59:00;102820.88;;;8.53;100.00
57827;BME280;43656;57.746;11.780;2023-02-13T07:01:26;102831.63;;;8.62;100.00
57827;BME280;43656;57.746;11.780;2023-02-13T07:03:51;102811.19;;;8.71;100.00
57827;BME280;43656;57.746;11.780;2023-02-13T07:06:18;102810.00;;;8.54;100.00
57827;BME280;43656;57.746;11.780;2023-02-13T07:08:43;102816.66;;;8.60;100.00
57827;BME280;43656;57.746;11.780;2023-02-13T07:11:16;102817.22;;;8.63;100.00
57827;BME280;43656;57.746;11.780;2023-02-13T07:13:42;102827.56;;;8.68;100.00
57827;BME280;43656;57.746;11.780;2023-02-13T07:16:07;102830.38;;;8.66;100.00
57827;BME280;43656;57.746;11.780;2023-02-13T07:18:33;102824.84;;;8.58;100.00
57827;BME280;43656;57.746;11.780;2023-02-13T07:20:58;102827.53;;;8.58;100.00
57827;BME280;43656;57.746;11.780;2023-02-13T07:23:24;102823.84;;;8.59;100.00
57827;BME280;43656;57.746;11.780;2023-02-13T07:25:49;102830.22;;;8.58;100.00
57827;BME280;43656;57.746;11.780;2023-02-13T07:28:14;102830.69;;;8.73;100.00
57827;BME280;43656;57.746;11.780;2023-02-13T07:30:40;102842.50;;;8.61;100.00
57827;BME280;43656;57.746;11.780;2023-02-13T07:33:05;102811.56;;;8.57;100.00
57827;BME280;43656;57.746;11.780;2023-02-13T07:35:31;102820.22;;;8.70;100.00
57827;BME280;43656;57.746;11.780;2023-02-13T07:37:57;102813.44;;;8.76;100.00
57827;BME280;43656;57.746;11.780;2023-02-13T07:40:24;102818.78;;;8.66;100.00
57827;BME280;43656;57.746;11.780;2023-02-13T07:42:50;102808.34;;;8.73;100.00
57827;BME280;43656;57.746;11.780;2023-02-13T07:45:15;102812.72;;;8.74;100.00
57827;BME280;43656;57.746;11.780;2023-02-13T07:47:41;102805.84;;;8.81;100.00
57827;BME280;43656;57.746;11.780;2023-02-13T07:50:08;102799.31;;;8.83;100.00
57827;BME280;43656;57.746;11.780;2023-02-13T07:52:34;102808.81;;;8.78;100.00
57827;BME280;43656;57.746;11.780;2023-02-13T07:55:02;102818.41;;;8.80;100.00
57827;BME280;43656;57.746;11.780;2023-02-13T07:57:27;102817.97;;;8.75;100.00
57827;BME280;43656;57.746;11.780;2023-02-13T07:59:53;102825.03;;;8.76;100.00
57827;BME280;43656;57.746;11.780;2023-02-13T08:02:18;102829.53;;;8.66;100.00
57827;BME280;43656;57.746;11.780;2023-02-13T08:04:43;102845.13;;;8.82;100.00
57827;BME280;43656;57.746;11.780;2023-02-13T08:07:15;102854.97;;;8.72;100.00
57827;BME280;43656;57.746;11.780;2023-02-13T08:09:43;102851.00;;;8.66;100.00
57827;BME280;43656;57.746;11.780;2023-02-13T08:12:27;102843.59;;;8.49;100.00
57827;BME280;43656;57.746;11.780;2023-02-13T08:14:53;102873.72;;;8.62;100.00
57827;BME280;43656;57.746;11.780;2023-02-13T08:17:18;102879.78;;;8.64;100.00
57827;BME280;43656;57.746;11.780;2023-02-13T08:19:44;102898.72;;;8.62;100.00
57827;BME280;43656;57.746;11.780;2023-02-13T08:22:09;102894.47;;;8.60;100.00
57827;BME280;43656;57.746;11.780;2023-02-13T08:24:35;102886.34;;;8.71;100.00
57827;BME280;43656;57.746;11.780;2023-02-13T08:27:00;102888.75;;;8.74;100.00
57827;BME280;43656;57.746;11.780;2023-02-13T08:29:26;102887.47;;;8.68;100.00
57827;BME280;43656;57.746;11.780;2023-02-13T08:31:51;102896.09;;;8.72;100.00
57827;BME280;43656;57.746;11.780;2023-02-13T08:34:16;102913.53;;;8.57;100.00
57827;BME280;43656;57.746;11.780;2023-02-13T08:36:42;102929.34;;;8.81;100.00
57827;BME280;43656;57.746;11.780;2023-02-13T08:39:10;102936.38;;;8.82;100.00
57827;BME280;43656;57.746;11.780;2023-02-13T08:41:36;102937.94;;;8.54;100.00
57827;BME280;43656;57.746;11.780;2023-02-13T08:44:01;102923.25;;;8.79;100.00
57827;BME280;43656;57.746;11.780;2023-02-13T08:46:27;102916.53;;;8.63;100.00
57827;BME280;43656;57.746;11.780;2023-02-13T08:48:53;102892.22;;;8.55;100.00
57827;BME280;43656;57.746;11.780;2023-02-13T08:51:19;102929.91;;;8.84;99.33
57827;BME280;43656;57.746;11.780;2023-02-13T08:53:44;102944.91;;;8.97;99.11
57827;BME280;43656;57.746;11.780;2023-02-13T08:56:10;102940.84;;;9.02;98.38
57827;BME280;43656;57.746;11.780;2023-02-13T08:58:35;102939.44;;;9.08;98.84
57827;BME280;43656;57.746;11.780;2023-02-13T09:01:05;102935.06;;;9.16;98.03
57827;BME280;43656;57.746;11.780;2023-02-13T09:03:31;102930.44;;;9.28;97.64
57827;BME280;43656;57.746;11.780;2023-02-13T09:06:00;102934.41;;;9.24;98.57
57827;BME280;43656;57.746;11.780;2023-02-13T09:08:26;102948.22;;;9.20;98.31
57827;BME280;43656;57.746;11.780;2023-02-13T09:11:00;102935.38;;;9.23;98.74
57827;BME280;43656;57.746;11.780;2023-02-13T09:13:28;102937.09;;;9.24;98.52
57827;BME280;43656;57.746;11.780;2023-02-13T09:15:58;102927.72;;;9.09;98.78
57827;BME280;43656;57.746;11.780;2023-02-13T09:18:24;102942.72;;;9.11;99.29
57827;BME280;43656;57.746;11.780;2023-02-13T09:20:49;102937.06;;;9.14;99.69
57827;BME280;43656;57.746;11.780;2023-02-13T09:23:14;102936.63;;;9.19;99.38
57827;BME280;43656;57.746;11.780;2023-02-13T09:25:40;102917.00;;;9.28;98.36
57827;BME280;43656;57.746;11.780;2023-02-13T09:28:05;102924.53;;;9.44;98.32
57827;BME280;43656;57.746;11.780;2023-02-13T09:30:31;102905.16;;;9.40;98.45
57827;BME280;43656;57.746;11.780;2023-02-13T09:32:56;102908.53;;;9.43;98.57
57827;BME280;43656;57.746;11.780;2023-02-13T09:35:22;102913.09;;;9.52;98.79
57827;BME280;43656;57.746;11.780;2023-02-13T09:37:48;102916.50;;;9.54;98.98
57827;BME280;43656;57.746;11.780;2023-02-13T09:40:23;102910.94;;;9.46;99.93
57827;BME280;43656;57.746;11.780;2023-02-13T09:42:51;102920.00;;;9.45;99.60
57827;BME280;43656;57.746;11.780;2023-02-13T09:45:19;102919.47;;;9.51;98.88
57827;BME280;43656;57.746;11.780;2023-02-13T09:47:46;102915.78;;;9.52;98.83
57827;BME280;43656;57.746;11.780;2023-02-13T09:50:28;102905.44;;;9.67;98.24
57827;BME280;43656;57.746;11.780;2023-02-13T09:52:55;102925.13;;;9.77;97.25
57827;BME280;43656;57.746;11.780;2023-02-13T09:55:42;102927.81;;;9.77;97.02
57827;BME280;43656;57.746;11.780;2023-02-13T10:01:24;102915.06;;;9.88;96.54
57827;BME280;43656;57.746;11.780;2023-02-13T10:05:03;102937.84;;;9.94;96.94
57827;BME280;43656;57.746;11.780;2023-02-13T10:09:52;102939.09;;;10.00;96.32
57827;BME280;43656;57.746;11.780;2023-02-13T10:17:53;102959.94;;;9.98;95.97
57827;BME280;43656;57.746;11.780;2023-02-13T10:20:33;102960.59;;;10.09;95.55
57827;BME280;43656;57.746;11.780;2023-02-13T10:26:00;102964.31;;;9.89;95.20
57827;BME280;43656;57.746;11.780;2023-02-13T10:28:42;102978.75;;;9.88;95.17
57827;BME280;43656;57.746;11.780;2023-02-13T10:31:16;102976.19;;;9.86;94.84
57827;BME280;43656;57.746;11.780;2023-02-13T10:33:50;102970.13;;;9.94;94.88
57827;BME280;43656;57.746;11.780;2023-02-13T10:36:30;102972.25;;;9.91;94.86
57827;BME280;43656;57.746;11.780;2023-02-13T11:04:17;102984.78;;;9.41;97.15
57827;BME280;43656;57.746;11.780;2023-02-13T11:07:14;102979.16;;;9.54;96.41
57827;BME280;43656;57.746;11.780;2023-02-13T11:09:43;102968.53;;;9.62;95.91
57827;BME280;43656;57.746;11.780;2023-02-13T11:12:29;102980.41;;;9.70;96.32
57827;BME280;43656;57.746;11.780;2023-02-13T11:14:59;102981.59;;;9.77;95.58
57827;BME280;43656;57.746;11.780;2023-02-13T11:17:27;102955.53;;;9.58;96.35
57827;BME280;43656;57.746;11.780;2023-02-13T11:19:57;102983.41;;;9.76;95.24
57827;BME280;43656;57.746;11.780;2023-02-13T11:22:36;102999.81;;;9.83;95.82
57827;BME280;43656;57.746;11.780;2023-02-13T11:25:05;102980.00;;;9.64;95.04
57827;BME280;43656;57.746;11.780;2023-02-13T11:27:37;102979.56;;;9.69;96.02
57827;BME280;43656;57.746;11.780;2023-02-13T11:30:10;102991.59;;;9.65;96.35
57827;BME280;43656;57.746;11.780;2023-02-13T11:38:10;102981.72;;;9.85;95.39
57827;BME280;43656;57.746;11.780;2023-02-13T11:40:37;102975.63;;;9.83;95.25
57827;BME280;43656;57.746;11.780;2023-02-13T11:43:06;102976.06;;;9.88;95.69
57827;BME280;43656;57.746;11.780;2023-02-13T11:45:33;102975.34;;;10.05;94.55
57827;BME280;43656;57.746;11.780;2023-02-13T11:47:59;102976.47;;;10.12;94.53
57827;BME280;43656;57.746;11.780;2023-02-13T11:50:33;102979.31;;;10.21;94.29
57827;BME280;43656;57.746;11.780;2023-02-13T11:53:05;102971.34;;;10.19;94.06
57827;BME280;43656;57.746;11.780;2023-02-13T11:55:37;102967.28;;;10.05;94.57
57827;BME280;43656;57.746;11.780;2023-02-13T12:00:34;102964.44;;;10.17;93.66
57827;BME280;43656;57.746;11.780;2023-02-13T12:03:24;102977.59;;;10.29;93.72
57827;BME280;43656;57.746;11.780;2023-02-13T12:08:35;102976.06;;;10.27;93.93
57827;BME280;43656;57.746;11.780;2023-02-13T12:11:14;102972.78;;;10.23;93.65
57827;BME280;43656;57.746;11.780;2023-02-13T12:13:41;102969.41;;;10.11;94.47
57827;BME280;43656;57.746;11.780;2023-02-13T12:16:24;102984.69;;;10.21;94.23
57827;BME280;43656;57.746;11.780;2023-02-13T12:18:55;102970.81;;;10.06;95.38
57827;BME280;43656;57.746;11.780;2023-02-13T12:35:59;102989.25;;;10.30;94.45
57827;BME280;43656;57.746;11.780;2023-02-13T12:38:50;102986.56;;;10.30;93.46
57827;BME280;43656;57.746;11.780;2023-02-13T12:55:01;102994.31;;;10.04;93.33
57827;BME280;43656;57.746;11.780;2023-02-13T13:00:27;102993.03;;;9.98;93.56
57827;BME280;43656;57.746;11.780;2023-02-13T13:05:59;103005.78;;;9.96;93.71
57827;BME280;43656;57.746;11.780;2023-02-13T13:14:07;103005.94;;;9.95;95.26
57827;BME280;43656;57.746;11.780;2023-02-13T13:16:49;103007.91;;;9.93;94.91
57827;BME280;43656;57.746;11.780;2023-02-13T13:22:05;102998.59;;;9.97;94.52
57827;BME280;43656;57.746;11.780;2023-02-13T13:27:15;102999.13;;;9.91;95.54
57827;BME280;43656;57.746;11.780;2023-02-13T13:29:44;103004.38;;;9.92;95.00
57827;BME280;43656;57.746;11.780;2023-02-13T13:32:15;103000.97;;;9.90;95.84
57827;BME280;43656;57.746;11.780;2023-02-13T13:34:43;103003.53;;;9.92;94.95
57827;BME280;43656;57.746;11.780;2023-02-13T13:37:33;103002.97;;;9.98;94.70
57827;BME280;43656;57.746;11.780;2023-02-13T13:40:20;103006.50;;;10.08;93.95
57827;BME280;43656;57.746;11.780;2023-02-13T13:43:40;103007.78;;;10.04;94.51
57827;BME280;43656;57.746;11.780;2023-02-13T13:50:58;103004.25;;;10.03;95.11
57827;BME280;43656;57.746;11.780;2023-02-13T13:53:23;103004.09;;;10.05;94.80
57827;BME280;43656;57.746;11.780;2023-02-13T14:03:42;103007.91;;;10.02;94.38
57827;BME280;43656;57.746;11.780;2023-02-13T14:06:12;103015.56;;;10.07;94.18
57827;BME280;43656;57.746;11.780;2023-02-13T14:11:39;103011.31;;;9.95;94.88
57827;BME280;43656;57.746;11.780;2023-02-13T14:17:00;102993.47;;;9.74;95.59
57827;BME280;43656;57.746;11.780;2023-02-13T14:19:32;103009.03;;;9.80;95.84
57827;BME280;43656;57.746;11.780;2023-02-13T14:25:23;103013.53;;;9.80;95.00
57827;BME280;43656;57.746;11.780;2023-02-13T14:27:59;103011.75;;;9.90;94.64
57827;BME280;43656;57.746;11.780;2023-02-13T14:30:29;103016.53;;;9.96;94.09
57827;BME280;43656;57.746;11.780;2023-02-13T14:32:56;103010.31;;;9.96;94.10
57827;BME280;43656;57.746;11.780;2023-02-13T14:35:29;103016.41;;;9.98;94.80
57827;BME280;43656;57.746;11.780;2023-02-13T14:37:58;103027.84;;;10.00;95.44
57827;BME280;43656;57.746;11.780;2023-02-13T14:40:30;103033.69;;;10.05;94.74
57827;BME280;43656;57.746;11.780;2023-02-13T14:43:01;103015.56;;;9.87;94.89
57827;BME280;43656;57.746;11.780;2023-02-13T14:45:34;103027.44;;;9.95;95.19
57827;BME280;43656;57.746;11.780;2023-02-13T14:48:07;103029.84;;;9.98;95.08
57827;BME280;43656;57.746;11.780;2023-02-13T14:50:45;103039.75;;;9.97;95.10
57827;BME280;43656;57.746;11.780;2023-02-13T14:53:21;103038.75;;;9.98;95.08
57827;BME280;43656;57.746;11.780;2023-02-13T14:55:53;103040.03;;;9.94;95.06
57827;BME280;43656;57.746;11.780;2023-02-13T14:58:51;103039.63;;;9.99;95.02
57827;BME280;43656;57.746;11.780;2023-02-13T15:01:34;103037.66;;;10.01;94.99
57827;BME280;43656;57.746;11.780;2023-02-13T15:04:19;103044.44;;;9.95;94.95
57827;BME280;43656;57.746;11.780;2023-02-13T15:06:46;103016.94;;;9.72;95.33
57827;BME280;43656;57.746;11.780;2023-02-13T15:11:48;103043.84;;;9.82;95.21
57827;BME280;43656;57.746;11.780;2023-02-13T15:14:30;103044.97;;;9.79;95.21
57827;BME280;43656;57.746;11.780;2023-02-13T15:17:15;103038.44;;;9.72;94.72
57827;BME280;43656;57.746;11.780;2023-02-13T15:19:51;103048.66;;;9.78;95.48
57827;BME280;43656;57.746;11.780;2023-02-13T15:22:31;103048.50;;;9.70;95.42
57827;BME280;43656;57.746;11.780;2023-02-13T15:24:57;103046.94;;;9.68;95.53
57827;BME280;43656;57.746;11.780;2023-02-13T15:27:31;103041.56;;;9.68;95.63
57827;BME280;43656;57.746;11.780;2023-02-13T15:29:59;103053.72;;;9.62;95.25
57827;BME280;43656;57.746;11.780;2023-02-13T15:32:31;103052.03;;;9.61;95.59
57827;BME280;43656;57.746;11.780;2023-02-13T15:34:57;103044.50;;;9.55;95.84
57827;BME280;43656;57.746;11.780;2023-02-13T15:37:26;103037.56;;;9.52;95.68
57827;BME280;43656;57.746;11.780;2023-02-13T15:39:52;103040.41;;;9.51;95.68
57827;BME280;43656;57.746;11.780;2023-02-13T15:42:17;103052.09;;;9.50;95.68